Terminal Aerodrome Forecast
Issued by NWS

Home | Current Version | Previous Version | Text Only | Print | Product List | Glossary On
Versions: 1 2 3 4 5 6 7 8 9 10 11 12 13 14 15
000
FTUS44 KBMX 222300
TAFTCL
TAF
KTCL 222339Z 2300/2324 10006KT P6SM SCT040 SCT250
     FM230200 14008KT P6SM OVC020
     FM230900 10009KT P6SM SHRA OVC015
     FM231500 12012G18KT 4SM TSRA BR BKN015 OVC030CB=

USA.gov is the U.S. government's official web portal to all federal, state and local government web resources and services.